• Join FlightAware (Why Join?)
  • Login
  • US Flag 
10:31PM EDT


 

Airport Tracker/Info


-or-


 

Live Flight TrackerFlight Track Log ✈ AAL1326 ✈ 12-May-2013 ✈ KMCI - KORD

Flight Track Log - Related Links

Times and Time Zones

All times are in EDT time to prevent confusion due to time zone crossing. See the AAL1326 flight status page for this flight to view local times or setup timezone preferences in your user account.

Time Position Orientation Groundspeed Altitude Reporting Facility
EDT Latitude Longitude Course Direction KTS MPH feet Rate Location/Type
04:37PM 39.4728 -94.4870 41° Northeast  Level FlightAware Approximate
04:38PM 39.5472 -94.4032 41° Northeast  Level FlightAware Approximate
04:38PM 39.5120 -94.6070 41° Northeast 289 333 8,600  Level FlightAware
04:38PM 39.5210 -94.5900 56° Northeast 289 333 9,400 2,280 Climbing FlightAware
04:39PM 39.5550 -94.5280 55° Northeast 328 377 10,700 2,400 Climbing FlightAware
04:40PM 39.5920 -94.4610 54° Northeast 348 400 12,600 3,000 Climbing FlightAware
04:40PM 39.6360 -94.3820 54° Northeast 358 412 15,000 3,000 Climbing FlightAware
04:41PM 39.6750 -94.3110 54° Northeast 373 429 16,900 2,700 Climbing FlightAware
04:42PM 39.7220 -94.2290 53° Northeast 388 447 18,900 2,580 Climbing FlightAware
04:42PM 39.7650 -94.1540 53° Northeast 399 459 20,600 2,520 Climbing FlightAware
04:43PM 39.8070 -94.0720 56° Northeast 415 478 22,300 2,400 Climbing FlightAware
04:44PM 39.8380 -93.9670 69° East 429 494 24,000 2,280 Climbing FlightAware
04:45PM 39.8680 -93.8670 69° East 435 501 25,600 2,100 Climbing FlightAware
04:45PM 39.9000 -93.7570 69° East 444 511 27,000 2,160 Climbing FlightAware
04:46PM 39.9290 -93.6580 69° East 440 506 28,700 2,400 Climbing FlightAware
04:47PM 39.9570 -93.5600 70° East 436 502 30,200 2,220 Climbing FlightAware
04:47PM 39.9900 -93.4460 69° East 432 497 31,900 1,920 Climbing FlightAware
04:48PM 40.0170 -93.3510 70° East 428 493 33,000 780 Climbing FlightAware
04:49PM 40.0450 -93.2520 70° East 426 490 33,000  Level FlightAware
04:49PM 40.0750 -93.1470 69° East 425 489 33,000  Level FlightAware
04:50PM 40.1020 -93.0500 70° East 426 490 33,000  Level FlightAware
04:51PM 40.1340 -92.9380 69° East 430 495 33,000  Level FlightAware
04:52PM 40.1610 -92.8420 70° East 433 498 33,000  Level FlightAware
04:52PM 40.1870 -92.7530 69° East 432 497 33,000  Level FlightAware
04:53PM 40.2190 -92.6350 70° East 434 499 33,000  Level FlightAware
04:54PM 40.2500 -92.5220 70° East 436 502 33,000  Level FlightAware
04:54PM 40.2760 -92.4290 70° East 439 505 33,000  Level FlightAware
04:55PM 40.3020 -92.3360 70° East 441 507 33,000  Level FlightAware
04:56PM 40.3360 -92.2120 70° East 445 512 33,000  Level FlightAware
04:56PM 40.3600 -92.1210 71° East 446 513 33,000  Level FlightAware
04:57PM 40.3880 -92.0190 70° East 447 514 33,000  Level FlightAware
04:58PM 40.4370 -91.8400 70° East 449 517 33,000  Level FlightAware
04:59PM 40.4710 -91.7130 71° East 453 521 33,000  Level FlightAware
05:00PM 40.5050 -91.5870 70° East 454 522 33,000  Level FlightAware
05:01PM 40.5340 -91.4790 71° East 454 522 33,000  Level FlightAware
05:01PM 40.5720 -91.3510 69° East 449 517 33,000  Level FlightAware
05:02PM 40.6040 -91.2560 66° East 449 517 33,000  Level FlightAware
05:03PM 40.6460 -91.1350 65° Northeast 450 518 33,000 -120 Level FlightAware
05:03PM 40.6800 -91.0340 66° East 452 520 32,900 -240 Descending FlightAware
05:04PM 40.7110 -90.9420 66° East 453 521 32,700 -960 Descending FlightAware
05:05PM 40.7500 -90.8260 66° East 450 518 31,600 -1,320 Descending FlightAware
05:06PM 40.7850 -90.7240 66° East 448 516 30,900 -1,020 Descending FlightAware
05:06PM 40.8240 -90.6090 66° East 445 512 30,200 -900 Descending FlightAware
05:07PM 40.8520 -90.5240 66° East 443 510 29,700 -900 Descending FlightAware
05:08PM 40.8920 -90.4040 66° East 444 511 29,000 -480 Descending FlightAware
05:08PM 40.9260 -90.3020 66° East 441 507 29,000  Level FlightAware
05:09PM 40.9560 -90.2110 66° East 438 504 29,000  Level FlightAware
05:10PM 40.9910 -90.1050 66° East 458 527 29,000  Level FlightAware
05:10PM 41.0310 -89.9830 66° East 470 541 29,000 -300 Level FlightAware
05:11PM 41.0660 -89.8770 66° East 470 541 28,600 -1,560 Descending FlightAware
05:12PM 41.1040 -89.7610 66° East 464 534 26,800 -2,340 Descending FlightAware
05:13PM 41.1340 -89.6650 67° East 451 519 25,300 -2,400 Descending FlightAware
05:13PM 41.1770 -89.5460 64° Northeast 428 493 23,400 -2,280 Descending FlightAware
05:14PM 41.2110 -89.4610 62° Northeast 417 480 22,100 -1,980 Descending FlightAware
05:15PM 41.2470 -89.3710 62° Northeast 414 476 20,800 -2,100 Descending FlightAware
05:15PM 41.2890 -89.2680 61° Northeast 407 468 19,200 -1,980 Descending FlightAware
05:16PM 41.3230 -89.1850 61° Northeast 396 456 18,000 -1,920 Descending FlightAware
05:17PM 41.3630 -89.0840 62° Northeast 390 449 16,500 -1,980 Descending FlightAware
05:17PM 41.3970 -88.9990 62° Northeast 378 435 15,200 -1,860 Descending FlightAware
05:18PM 41.4320 -88.9110 62° Northeast 367 422 13,900 -1,800 Descending FlightAware
05:19PM 41.4640 -88.8310 62° Northeast 359 413 12,700 -1,740 Descending FlightAware
05:20PM 41.4930 -88.7560 63° Northeast 353 406 11,600 -1,320 Descending FlightAware
05:20PM 41.5290 -88.6660 62° Northeast 346 398 10,900 -540 Descending FlightAware
05:21PM 41.5580 -88.5910 63° Northeast 351 404 10,900 -120 Level FlightAware
05:22PM 41.5910 -88.5090 62° Northeast 332 382 10,800 -360 Descending FlightAware
05:22PM 41.6250 -88.4390 57° Northeast 344 396 10,400 -660 Descending FlightAware
05:23PM 41.6710 -88.3610 52° Northeast 340 391 9,900 -480 Descending FlightAware
05:24PM 41.6940 -88.3220 52° Northeast 337 388 9,900  Level FlightAware
05:24PM 41.7220 -88.2730 53° Northeast 336 387 9,900  Level FlightAware
05:24PM 41.7470 -88.2300 52° Northeast 337 388 9,900 -120 Level FlightAware
05:25PM 41.7750 -88.1820 52° Northeast 310 357 9,800 -180 Descending FlightAware
05:25PM 41.7870 -88.1620 51° Northeast 295 339 9,800 -480 Level FlightAware
05:26PM 41.8070 -88.1280 52° Northeast 284 327 9,500 -1,320 Descending FlightAware
05:26PM 41.8310 -88.0850 53° Northeast 278 320 8,600 -1,800 Descending FlightAware
05:27PM 41.8500 -88.0500 54° Northeast 281 323 7,900 -1,560 Descending FlightAware
05:27PM 41.8740 -88.0080 52° Northeast 278 320 7,200 -1,380 Descending FlightAware
05:27PM 41.8820 -87.9860 64° Northeast 283 326 6,900 -600 Descending FlightAware
05:28PM 41.8840 -87.9600 84° East 285 328 6,900  Level FlightAware
05:28PM 41.8840 -87.9420 90° East 286 329 6,900  Level FlightAware
05:28PM 41.8840 -87.8910 90° East 266 306 6,900 -120 Level FlightAware
05:29PM 41.8840 -87.8430 90° East 234 269 6,800 -900 Descending FlightAware
05:29PM 41.8840 -87.8120 90° East 227 261 6,100 -1,980 Descending FlightAware
05:29PM 41.8850 -87.7880 87° East 231 266 5,500 -2,280 Descending FlightAware
05:30PM 41.8880 -87.7470 84° East 218 251 4,400 -2,400 Descending FlightAware
05:30PM 41.8940 -87.7360 54° Northeast 212 244 3,900 -2,640 Descending FlightAware
05:30PM 41.9080 -87.7280 23° Northeast 202 232 3,300 -2,100 Descending FlightAware
05:30PM 41.9100 -87.7280 360° North 197 227 3,200 -1,020 Descending FlightAware
05:31PM 41.9310 -87.7340 348° North 175 201 2,800 -720 Descending FlightAware
05:31PM 41.9480 -87.7490 327° Northwest 185 213 2,600 -600 Descending FlightAware
05:31PM 41.9560 -87.7630 308° West 187 215 2,400 -840 Descending FlightAware
05:32PM 41.9620 -87.7780 298° West 186 214 2,200 -1,080 Descending FlightAware
05:32PM 41.9680 -87.8110 284° West 162 186 1,600 -1,080 Descending FlightAware
05:32PM 41.9690 -87.8270 275° West 150 173 1,400 -900 Descending FlightAware
05:33PM 41.9690 -87.8480 270° West 141 162 1,000 -780 Descending FlightAware
05:33PM 41.9690 -87.8720 270° West 137 158 700 -720 Descending FlightAware
05:34PM 41.9690 -87.8870 270° West 133 153 500 -840 Descending FlightAware